createdAt,value
2023-04-15T00:05:08.828Z,1010
2023-04-15T00:17:08.817Z,1010
2023-04-15T00:29:08.746Z,1010
2023-04-15T00:41:08.957Z,1010
2023-04-15T00:53:08.914Z,1010
2023-04-15T01:05:08.857Z,1010
2023-04-15T01:17:08.761Z,1010
2023-04-15T01:29:08.974Z,1010
2023-04-15T01:41:08.901Z,1011
2023-04-15T01:53:08.925Z,1011
2023-04-15T02:05:09.009Z,1011
2023-04-15T02:17:09.006Z,1011
2023-04-15T02:29:08.928Z,1011
2023-04-15T02:41:08.890Z,1011
2023-04-15T02:53:09.077Z,1011
2023-04-15T03:05:09.018Z,1012
2023-04-15T03:17:08.934Z,1012
2023-04-15T03:29:09.124Z,1012
2023-04-15T03:41:09.057Z,1012
2023-04-15T03:53:09.065Z,1012
2023-04-15T04:05:08.991Z,1012
2023-04-15T04:17:09.022Z,1012
2023-04-15T04:29:09.135Z,1013
2023-04-15T04:41:09.125Z,1013
2023-04-15T04:53:09.085Z,1013
2023-04-15T05:05:09.042Z,1013
2023-04-15T05:17:09.161Z,1014
2023-04-15T05:29:09.154Z,1014
2023-04-15T05:41:09.076Z,1014
2023-04-15T05:53:09.252Z,1015
2023-04-15T06:05:09.357Z,1015
2023-04-15T06:17:09.293Z,1015
2023-04-15T06:29:09.147Z,1015
2023-04-15T06:41:09.429Z,1016
2023-04-15T06:53:09.224Z,1016
2023-04-15T07:05:09.204Z,1016
2023-04-15T07:17:09.162Z,1016
2023-04-15T07:29:09.353Z,1017
2023-04-15T07:41:09.246Z,1017
2023-04-15T07:53:09.228Z,1017
2023-04-15T08:05:09.416Z,1018
2023-04-15T08:17:09.361Z,1018
2023-04-15T08:29:09.271Z,1018
2023-04-15T08:41:09.261Z,1019
2023-04-15T08:53:09.392Z,1019
2023-04-15T09:05:09.408Z,1019
2023-04-15T09:17:09.337Z,1019
2023-04-15T09:29:09.496Z,1020
2023-04-15T09:41:09.451Z,1020
2023-04-15T09:53:09.450Z,1020
2023-04-15T10:05:09.395Z,1020
2023-04-15T10:17:09.512Z,1020
2023-04-15T10:29:09.472Z,1020
2023-04-15T10:41:09.453Z,1020
2023-04-15T10:53:09.385Z,1021
2023-04-15T11:05:09.591Z,1021
2023-04-15T11:17:09.505Z,1021
2023-04-15T11:29:09.471Z,1021
2023-04-15T11:41:09.427Z,1022
2023-04-15T11:53:09.619Z,1022
2023-04-15T12:05:09.631Z,1023
2023-04-15T12:17:09.544Z,1023
2023-04-15T12:29:09.443Z,1024
2023-04-15T12:41:09.641Z,1025
2023-04-15T12:53:09.548Z,1025
2023-04-15T13:05:09.571Z,1026
2023-04-15T13:17:09.703Z,1027
2023-04-15T13:29:09.666Z,1027
2023-04-15T13:41:09.588Z,1027
2023-04-15T13:53:09.698Z,1028
2023-04-15T14:05:09.695Z,1028
2023-04-15T14:17:09.656Z,1028
2023-04-15T14:29:09.599Z,1029
2023-04-15T14:41:09.585Z,1029
2023-04-15T14:53:09.750Z,1029
2023-04-15T15:05:09.825Z,1028
2023-04-15T15:17:09.685Z,1029
2023-04-15T15:29:09.669Z,1028
2023-04-15T15:41:09.794Z,1029
2023-04-15T15:53:09.777Z,1029
2023-04-15T16:05:09.731Z,1028
2023-04-15T16:17:09.720Z,1028
2023-04-15T16:29:09.872Z,1028
2023-04-15T16:41:09.826Z,1027
2023-04-15T16:53:09.756Z,1026
2023-04-15T17:05:10.068Z,1026
2023-04-15T17:17:09.883Z,1025
2023-04-15T17:29:09.874Z,1024
2023-04-15T17:41:09.797Z,1024
2023-04-15T17:53:09.979Z,1024
2023-04-15T18:05:09.951Z,1024
2023-04-15T18:17:09.868Z,1024
2023-04-15T18:29:09.805Z,1024
2023-04-15T18:41:10.218Z,1023
2023-04-15T18:53:09.934Z,1023
2023-04-15T19:05:09.942Z,1023
2023-04-15T19:17:09.842Z,1024
2023-04-15T19:29:10.714Z,1023
2023-04-15T19:41:09.962Z,1023
2023-04-15T19:53:09.942Z,1023
2023-04-15T20:05:10.153Z,1023
2023-04-15T20:17:10.081Z,1024
2023-04-15T20:29:09.996Z,1024
2023-04-15T20:41:09.972Z,1024
2023-04-15T20:53:10.110Z,1024
2023-04-15T21:05:10.108Z,1023
2023-04-15T21:17:11.265Z,1023
2023-04-15T21:29:11.561Z,1024
2023-04-15T21:41:10.134Z,1024
2023-04-15T21:53:10.128Z,1024
2023-04-15T22:05:10.077Z,1024
2023-04-15T22:17:10.250Z,1025
2023-04-15T22:29:10.174Z,1024
2023-04-15T22:41:10.186Z,1024
2023-04-15T22:53:10.066Z,1024
2023-04-15T23:05:12.507Z,1024
2023-04-15T23:17:10.198Z,1024
2023-04-15T23:29:10.426Z,1025
2023-04-15T23:41:10.201Z,1024
2023-04-15T23:53:10.152Z,1024
